aviador You're here:

WMKL Decoded Metar

PULAU in MALAYSIA
Report Time2017-07-24 16:00:00
UTC Time2017-07-24 16:41:50
Flight Rules vfr VFR
WindCalm
Visibility9999 m
Phenomena:N/A
Clouds:Few 026 Hf
Broken 280 Hf
Expected CloudBase > 800 ft AGL from Temp-Dew spread
Ceiling28,000 ft
Temp28°C (ISA +13)
Dew Point26°C (89% RH)
Heat Index33.6°C
QNH1009 hPa
Density Alt2,100 ft
Elevation23 ft
Report Wrong Elevation
Raw Report
METAR WMKL 241600Z 00000KT 9999 FEW026 BKN280 28/26 Q1009=

Extra information for WMKL:More info

Metar Taf Metar & Taf Last 4 Metars F.Rules Stats Wind Profile Meteogram Temp Stats Airport Information Weather charts Add Link Nearby VenuesMetar ALERT Operation Metar Decoded Social comments